Time;durP1;ratioP1;P1;durP2;ratioP2;P2;SDS_P1;SDS_P2;PMS_P1;PMS_P2;Temp;Humidity;BMP_temperature;BMP_pressure;BME280_temperature;BME280_humidity;BME280_pressure;Samples;Min_cycle;Max_cycle;Signal;HPM_P1;HPM_P2
2023/03/04 00:01:15;;;;;;;17.95;2.53;;;6.10;99.90;;;;;;5038936;28;25067;-78
2023/03/04 00:03:40;;;;;;;21.67;3.63;;;6.00;99.90;;;;;;5030224;28;25064;-79
2023/03/04 00:06:06;;;;;;;21.20;3.47;;;6.10;99.90;;;;;;5033847;28;25099;-78
2023/03/04 00:08:32;;;;;;;18.60;3.45;;;6.10;99.90;;;;;;5032365;28;25057;-79
2023/03/04 00:10:57;;;;;;;14.25;3.45;;;6.00;99.90;;;;;;5034159;28;25132;-80
2023/03/04 00:13:23;;;;;;;13.25;2.83;;;6.10;99.90;;;;;;5031829;28;25082;-77
2023/03/04 00:15:49;;;;;;;14.48;3.22;;;6.10;99.90;;;;;;5029821;28;25074;-80
2023/03/04 00:18:15;;;;;;;14.32;3.40;;;6.00;99.90;;;;;;5029734;28;25087;-77
2023/03/04 00:20:41;;;;;;;17.35;4.72;;;6.00;99.90;;;;;;5027767;28;25075;-78
2023/03/04 00:23:06;;;;;;;14.40;3.42;;;6.00;99.90;;;;;;5028308;28;25072;-77
2023/03/04 00:25:32;;;;;;;18.67;4.22;;;6.00;99.90;;;;;;5033511;28;25084;-77
2023/03/04 00:27:58;;;;;;;16.00;3.17;;;6.00;99.90;;;;;;5037783;28;25109;-78
2023/03/04 00:30:24;;;;;;;24.75;2.78;;;6.00;99.90;;;;;;5045139;28;25085;-78
2023/03/04 00:32:50;;;;;;;13.80;2.67;;;6.00;99.90;;;;;;5040918;28;25283;-77
2023/03/04 00:35:15;;;;;;;16.40;3.13;;;6.00;99.90;;;;;;5040767;28;25081;-79
2023/03/04 00:37:41;;;;;;;15.45;2.25;;;6.00;99.90;;;;;;5020909;28;25069;-77
2023/03/04 00:40:08;;;;;;;15.98;3.47;;;6.10;99.90;;;;;;5031468;28;25073;-76
2023/03/04 00:42:34;;;;;;;12.93;4.70;;;6.00;99.90;;;;;;5029870;28;25060;-79
2023/03/04 00:44:59;;;;;;;7.95;2.92;;;6.00;99.90;;;;;;5030159;28;25067;-78
2023/03/04 00:47:25;;;;;;;15.70;2.65;;;6.00;99.90;;;;;;5031086;28;25061;-77
2023/03/04 00:49:52;;;;;;;9.52;2.60;;;6.00;99.90;;;;;;5031043;28;25158;-76
2023/03/04 00:52:17;;;;;;;9.80;2.60;;;6.00;99.90;;;;;;5035689;28;25063;-81
2023/03/04 00:54:43;;;;;;;7.30;2.38;;;6.00;99.90;;;;;;5040338;28;25149;-81
2023/03/04 00:57:08;;;;;;;8.30;2.42;;;6.00;99.90;;;;;;5035691;28;25053;-76
2023/03/04 00:59:34;;;;;;;14.95;3.72;;;6.00;99.90;;;;;;5021734;28;25095;-76
2023/03/04 01:02:00;;;;;;;16.27;3.13;;;6.00;99.90;;;;;;5037350;28;25052;-75
2023/03/04 01:04:25;;;;;;;9.57;1.80;;;6.00;99.90;;;;;;5019789;28;25062;-78
2023/03/04 01:06:51;;;;;;;11.00;2.33;;;6.00;99.90;;;;;;5031052;28;25064;-76
2023/03/04 01:09:17;;;;;;;15.98;2.40;;;6.00;99.90;;;;;;5031985;28;25062;-79
2023/03/04 01:11:42;;;;;;;11.95;2.13;;;6.00;99.90;;;;;;5020219;28;25148;-78
2023/03/04 01:14:08;;;;;;;10.25;2.15;;;6.00;99.90;;;;;;5033204;28;25141;-78
2023/03/04 01:16:34;;;;;;;7.82;1.77;;;6.10;99.90;;;;;;5032631;28;25141;-75
2023/03/04 01:18:59;;;;;;;11.45;1.83;;;6.10;99.90;;;;;;5029289;28;25072;-76
2023/03/04 01:21:25;;;;;;;14.93;2.75;;;6.00;99.90;;;;;;5031534;28;25064;-76
2023/03/04 01:23:51;;;;;;;11.38;3.65;;;6.00;99.90;;;;;;5031823;28;25175;-75
2023/03/04 01:26:16;;;;;;;17.65;4.03;;;6.00;99.90;;;;;;5033108;28;25089;-78
2023/03/04 01:28:42;;;;;;;10.88;2.45;;;6.10;99.90;;;;;;5023496;28;25100;-76
2023/03/04 01:31:07;;;;;;;10.48;2.92;;;6.10;99.90;;;;;;5032397;28;25148;-79
2023/03/04 01:33:33;;;;;;;14.73;2.55;;;6.10;99.90;;;;;;5024465;28;25081;-79
2023/03/04 01:35:59;;;;;;;14.85;3.20;;;6.00;99.90;;;;;;5026807;28;25078;-78
2023/03/04 01:38:25;;;;;;;11.52;3.28;;;6.00;99.90;;;;;;5052940;28;25063;-76
2023/03/04 01:40:51;;;;;;;7.72;2.70;;;6.00;99.90;;;;;;5041953;28;25158;-76
2023/03/04 01:43:22;;;;;;;13.60;3.00;;;6.00;99.90;;;;;;5034707;28;25105;-78
2023/03/04 01:45:48;;;;;;;10.65;2.78;;;5.90;99.90;;;;;;5029125;28;25169;-74
2023/03/04 01:48:18;;;;;;;7.43;2.50;;;5.90;99.90;;;;;;5032989;28;25110;-80
2023/03/04 01:50:45;;;;;;;12.57;2.75;;;6.00;99.90;;;;;;5030679;28;25113;-78
2023/03/04 01:53:19;;;;;;;20.58;4.55;;;6.00;99.90;;;;;;5033446;28;25054;-76
2023/03/04 01:55:44;;;;;;;19.55;4.10;;;6.00;99.90;;;;;;5040152;28;25090;-78
2023/03/04 01:58:11;;;;;;;12.13;3.05;;;5.90;99.90;;;;;;5050498;28;25066;-75
2023/03/04 02:00:37;;;;;;;15.85;2.95;;;5.90;99.90;;;;;;5039760;28;25067;-78
2023/03/04 02:03:11;;;;;;;14.63;3.67;;;5.90;99.90;;;;;;5030233;28;25053;-79
2023/03/04 02:05:43;;;;;;;12.38;3.22;;;6.00;99.90;;;;;;5022733;28;25074;-76
2023/03/04 02:08:10;;;;;;;17.85;3.05;;;5.90;99.90;;;;;;5037166;28;25121;-79
2023/03/04 02:10:36;;;;;;;14.55;2.95;;;6.00;99.90;;;;;;5031789;28;25062;-76
2023/03/04 02:13:03;;;;;;;12.20;3.35;;;6.00;99.90;;;;;;5035821;28;25090;-74
2023/03/04 02:15:29;;;;;;;14.90;4.22;;;6.00;99.90;;;;;;5039315;28;25048;-75
2023/03/04 02:17:56;;;;;;;14.98;3.80;;;5.90;99.90;;;;;;5035070;28;25067;-81
2023/03/04 02:20:21;;;;;;;12.30;3.67;;;6.00;99.90;;;;;;5041332;28;25075;-76
2023/03/04 02:22:59;;;;;;;15.10;4.63;;;6.00;99.90;;;;;;5041469;28;25073;-77
2023/03/04 02:25:38;;;;;;;24.40;4.80;;;6.00;99.90;;;;;;5023836;28;25068;-77
2023/03/04 02:28:04;;;;;;;14.05;4.30;;;6.00;99.90;;;;;;5034975;28;25047;-83
2023/03/04 02:30:30;;;;;;;14.05;4.63;;;6.00;99.90;;;;;;5037201;28;25094;-78
2023/03/04 02:32:55;;;;;;;10.60;4.50;;;6.00;99.90;;;;;;5036014;28;25061;-77
2023/03/04 02:35:21;;;;;;;14.40;4.63;;;5.90;99.90;;;;;;5020702;28;25108;-80
2023/03/04 02:37:47;;;;;;;18.65;4.72;;;5.90;99.90;;;;;;5037990;28;25127;-78
2023/03/04 02:40:28;;;;;;;20.73;4.00;;;6.00;99.90;;;;;;5022466;28;25083;-76
2023/03/04 02:42:54;;;;;;;21.08;4.53;;;6.00;99.90;;;;;;5028181;28;25071;-76
2023/03/04 02:45:50;;;;;;;21.23;4.47;;;6.00;99.90;;;;;;5026005;28;25072;-79
2023/03/04 02:48:19;;;;;;;14.48;3.90;;;6.10;99.90;;;;;;5024830;28;25079;-77
2023/03/04 02:50:48;;;;;;;13.57;4.65;;;6.10;99.90;;;;;;5033663;28;25078;-76
2023/03/04 02:53:16;;;;;;;17.15;4.00;;;6.10;99.90;;;;;;5037440;28;25103;-77
2023/03/04 02:55:42;;;;;;;18.75;5.05;;;6.20;99.90;;;;;;5037239;28;25070;-75
2023/03/04 02:58:08;;;;;;;16.05;5.18;;;6.10;99.90;;;;;;5039501;28;25083;-77
2023/03/04 03:00:34;;;;;;;16.92;4.50;;;6.10;99.90;;;;;;5037154;28;25059;-76
2023/03/04 03:03:00;;;;;;;18.67;5.07;;;6.10;99.90;;;;;;5021639;28;25146;-79
2023/03/04 03:05:27;;;;;;;15.15;4.85;;;6.00;99.90;;;;;;5032506;28;25101;-75
2023/03/04 03:07:53;;;;;;;18.23;4.50;;;5.90;99.90;;;;;;5034519;28;25089;-75
2023/03/04 03:10:19;;;;;;;22.27;5.72;;;5.90;99.90;;;;;;5032161;28;25080;-77
2023/03/04 03:12:45;;;;;;;15.75;4.72;;;5.90;99.90;;;;;;5032831;28;25069;-75
2023/03/04 03:15:11;;;;;;;19.65;4.78;;;5.90;99.90;;;;;;5032676;28;25061;-77
2023/03/04 03:17:36;;;;;;;15.07;4.35;;;5.90;99.90;;;;;;5032051;28;25072;-77
2023/03/04 03:20:03;;;;;;;9.30;3.47;;;5.90;99.90;;;;;;5032648;28;25094;-76
2023/03/04 03:22:28;;;;;;;17.92;3.97;;;5.90;99.90;;;;;;5034524;28;25102;-77
2023/03/04 03:24:54;;;;;;;19.58;4.22;;;6.00;99.90;;;;;;5031009;28;25154;-75
2023/03/04 03:27:19;;;;;;;12.65;4.10;;;5.90;99.90;;;;;;5031392;28;25096;-72
2023/03/04 03:29:45;;;;;;;15.25;4.07;;;5.90;99.90;;;;;;5034392;28;25078;-77
2023/03/04 03:32:11;;;;;;;16.20;3.53;;;5.90;99.90;;;;;;5034239;28;25150;-75
2023/03/04 03:34:37;;;;;;;10.50;2.97;;;5.90;99.90;;;;;;5044394;28;25073;-78
2023/03/04 03:37:02;;;;;;;6.82;2.20;;;5.90;99.90;;;;;;5045365;28;25063;-77
2023/03/04 03:39:28;;;;;;;8.15;2.90;;;5.90;99.90;;;;;;5037813;28;25120;-76
2023/03/04 03:41:53;;;;;;;21.00;3.35;;;5.90;99.90;;;;;;5033980;28;25072;-77
2023/03/04 03:44:19;;;;;;;16.00;3.50;;;5.90;99.90;;;;;;5033426;28;25061;-78
2023/03/04 03:46:46;;;;;;;9.52;3.63;;;5.90;99.90;;;;;;5017444;28;25053;-75
2023/03/04 03:49:12;;;;;;;11.82;3.40;;;5.90;99.90;;;;;;5025368;28;25110;-79
2023/03/04 03:51:38;;;;;;;15.38;3.95;;;5.90;99.90;;;;;;5039501;28;25096;-76
2023/03/04 03:54:05;;;;;;;14.57;3.78;;;5.90;99.90;;;;;;5039615;28;25076;-78
2023/03/04 03:56:30;;;;;;;13.30;3.92;;;5.90;99.90;;;;;;5040714;28;25139;-75
2023/03/04 03:58:56;;;;;;;10.10;3.20;;;5.90;99.90;;;;;;5031500;28;25049;-75
2023/03/04 04:01:22;;;;;;;13.15;3.60;;;5.90;99.90;;;;;;5040086;28;25077;-77
2023/03/04 04:03:47;;;;;;;8.90;3.30;;;5.90;99.90;;;;;;5028818;28;25084;-79
2023/03/04 04:06:13;;;;;;;9.90;3.28;;;5.90;99.90;;;;;;5044067;28;25073;-80
2023/03/04 04:08:39;;;;;;;15.13;4.05;;;5.90;99.90;;;;;;5045589;28;25092;-77
2023/03/04 04:11:04;;;;;;;8.30;2.53;;;5.90;99.90;;;;;;5040410;28;25121;-75
2023/03/04 04:13:30;;;;;;;10.23;2.97;;;5.90;99.90;;;;;;5039354;28;25059;-77
2023/03/04 04:15:56;;;;;;;9.65;2.38;;;5.90;99.90;;;;;;5028349;28;25062;-77
2023/03/04 04:18:22;;;;;;;12.30;3.35;;;5.90;99.90;;;;;;5047993;28;25078;-79
2023/03/04 04:20:50;;;;;;;15.27;2.50;;;5.90;99.90;;;;;;5044582;28;25093;-74
2023/03/04 04:23:15;;;;;;;10.88;1.95;;;5.90;99.90;;;;;;5038599;28;25068;-77
2023/03/04 04:25:41;;;;;;;12.95;2.17;;;5.90;99.90;;;;;;5036524;28;25161;-77
2023/03/04 04:28:07;;;;;;;6.70;2.38;;;5.90;99.90;;;;;;5041920;28;25119;-76
2023/03/04 04:30:32;;;;;;;6.88;1.77;;;5.90;99.90;;;;;;5040333;28;25089;-76
2023/03/04 04:33:00;;;;;;;14.55;3.08;;;5.90;99.90;;;;;;5049245;28;25075;-79
2023/03/04 04:35:27;;;;;;;26.70;3.33;;;5.90;99.90;;;;;;5040475;28;25085;-81
2023/03/04 04:37:53;;;;;;;10.35;2.60;;;5.90;99.90;;;;;;5052070;28;25102;-83
2023/03/04 04:40:19;;;;;;;17.00;2.92;;;5.90;99.90;;;;;;5054873;28;25105;-75
2023/03/04 04:42:44;;;;;;;16.17;2.50;;;5.90;99.90;;;;;;5034541;28;25064;-78
2023/03/04 04:45:10;;;;;;;16.67;4.22;;;5.90;99.90;;;;;;5043823;28;25059;-76
2023/03/04 04:47:36;;;;;;;18.98;3.95;;;5.90;99.90;;;;;;5054755;28;25049;-76
2023/03/04 04:50:02;;;;;;;9.70;4.95;;;5.90;99.90;;;;;;5056932;28;25090;-80
2023/03/04 04:52:27;;;;;;;11.57;3.45;;;5.90;99.90;;;;;;5055788;28;25125;-75
2023/03/04 04:54:54;;;;;;;12.93;4.50;;;5.90;99.90;;;;;;5047220;28;25076;-73
2023/03/04 04:57:20;;;;;;;11.20;4.40;;;5.90;99.90;;;;;;5029158;28;25065;-76
2023/03/04 04:59:46;;;;;;;14.93;4.45;;;5.90;99.90;;;;;;5040007;28;25079;-76
2023/03/04 05:02:11;;;;;;;17.20;3.60;;;5.90;99.90;;;;;;5037531;28;25098;-76
2023/03/04 05:04:37;;;;;;;16.25;3.40;;;5.90;99.90;;;;;;5040070;28;25060;-77
2023/03/04 05:07:02;;;;;;;10.80;3.30;;;5.90;99.90;;;;;;5037066;28;25059;-73
2023/03/04 05:09:28;;;;;;;8.38;2.80;;;5.90;99.90;;;;;;5040617;28;25057;-75
2023/03/04 05:11:55;;;;;;;7.10;2.40;;;5.80;99.90;;;;;;5042581;28;25106;-75
2023/03/04 05:14:21;;;;;;;7.60;2.58;;;5.80;99.90;;;;;;5026454;28;25055;-81
2023/03/04 05:16:47;;;;;;;14.05;2.60;;;5.90;99.90;;;;;;5039152;28;25052;-79
2023/03/04 05:19:13;;;;;;;7.50;2.30;;;5.80;99.90;;;;;;5038727;28;25118;-76
2023/03/04 05:21:39;;;;;;;10.30;2.17;;;5.80;99.90;;;;;;5033214;28;25067;-74
2023/03/04 05:24:05;;;;;;;7.38;2.30;;;5.80;99.90;;;;;;5018147;28;25094;-76
2023/03/04 05:26:32;;;;;;;8.48;2.10;;;5.80;99.90;;;;;;5033767;28;25065;-74
2023/03/04 05:28:58;;;;;;;8.70;2.90;;;5.80;99.90;;;;;;5031856;28;25062;-77
2023/03/04 05:31:23;;;;;;;15.80;3.22;;;5.80;99.90;;;;;;5033800;28;25105;-77
2023/03/04 05:33:49;;;;;;;23.42;2.75;;;5.80;99.90;;;;;;5030649;28;25074;-76
2023/03/04 05:36:15;;;;;;;8.32;2.60;;;5.80;99.90;;;;;;5033124;28;25123;-76
2023/03/04 05:38:40;;;;;;;7.93;2.60;;;5.80;99.90;;;;;;5021424;28;25056;-74
2023/03/04 05:41:07;;;;;;;11.10;2.58;;;5.80;99.90;;;;;;5031955;28;25074;-80
2023/03/04 05:43:34;;;;;;;7.63;2.45;;;5.80;99.90;;;;;;5032223;28;25052;-76
2023/03/04 05:46:03;;;;;;;8.20;2.22;;;5.80;99.90;;;;;;5030278;28;25066;-79
2023/03/04 05:48:29;;;;;;;16.25;2.83;;;5.80;99.90;;;;;;5027110;28;25149;-80
2023/03/04 05:50:56;;;;;;;5.30;2.25;;;5.80;99.90;;;;;;5039204;28;25083;-74
2023/03/04 05:53:23;;;;;;;18.58;2.75;;;5.80;99.90;;;;;;5037589;28;25083;-74
2023/03/04 05:55:49;;;;;;;6.85;2.17;;;5.80;99.90;;;;;;5045958;28;25064;-79
2023/03/04 05:58:15;;;;;;;7.25;1.70;;;5.80;99.90;;;;;;5041700;28;25107;-80
2023/03/04 06:00:43;;;;;;;7.47;1.77;;;5.80;99.90;;;;;;5048914;28;25148;-78
2023/03/04 06:03:20;;;;;;;7.75;1.77;;;5.80;99.90;;;;;;5026016;28;25078;-76
2023/03/04 06:05:46;;;;;;;8.55;1.60;;;5.80;99.90;;;;;;5044517;28;25072;-78
2023/03/04 06:08:12;;;;;;;13.38;1.98;;;5.80;99.90;;;;;;5044283;28;25054;-77
2023/03/04 06:10:39;;;;;;;7.47;2.00;;;5.80;99.90;;;;;;5033216;28;25093;-79
2023/03/04 06:13:06;;;;;;;13.55;2.60;;;5.80;99.90;;;;;;5036077;28;25059;-79
2023/03/04 06:15:31;;;;;;;8.88;2.15;;;5.80;99.90;;;;;;5029289;28;25098;-77
2023/03/04 06:17:57;;;;;;;15.73;2.08;;;5.80;99.90;;;;;;5039054;28;25049;-80
2023/03/04 06:20:23;;;;;;;9.18;2.08;;;5.80;99.90;;;;;;5041587;28;25087;-76
2023/03/04 06:22:48;;;;;;;8.23;1.77;;;5.70;99.90;;;;;;5039790;28;25068;-79
2023/03/04 06:25:14;;;;;;;11.20;2.40;;;5.70;99.90;;;;;;5040602;28;25109;-78
2023/03/04 06:27:40;;;;;;;6.75;1.45;;;5.70;99.90;;;;;;5041108;28;25081;-75
2023/03/04 06:30:06;;;;;;;9.25;1.83;;;5.70;99.90;;;;;;5040848;28;25069;-78
2023/03/04 06:32:32;;;;;;;12.65;1.90;;;5.60;99.90;;;;;;5042117;28;25134;-76
2023/03/04 06:34:57;;;;;;;9.10;1.80;;;5.60;99.90;;;;;;5045974;28;25072;-76
2023/03/04 06:37:23;;;;;;;10.35;1.92;;;5.70;99.90;;;;;;5050925;28;25081;-81
2023/03/04 06:39:48;;;;;;;11.60;1.75;;;5.70;99.90;;;;;;5057834;28;25073;-77
2023/03/04 06:42:14;;;;;;;6.53;1.65;;;5.70;99.90;;;;;;5057314;28;25068;-78
2023/03/04 06:44:40;;;;;;;12.75;1.85;;;5.70;99.90;;;;;;5055458;28;25126;-78
2023/03/04 06:47:06;;;;;;;7.55;1.77;;;5.70;99.90;;;;;;5043844;28;25072;-79
2023/03/04 06:49:32;;;;;;;10.88;2.30;;;5.80;99.90;;;;;;5031945;28;25076;-79
2023/03/04 06:51:57;;;;;;;15.35;2.42;;;5.80;99.90;;;;;;5032773;28;25073;-75
2023/03/04 06:54:23;;;;;;;11.40;1.90;;;5.80;99.90;;;;;;5049891;28;25085;-77
2023/03/04 06:56:49;;;;;;;17.13;1.80;;;5.80;99.90;;;;;;5037110;28;25088;-77
2023/03/04 06:59:14;;;;;;;5.13;1.58;;;5.80;99.90;;;;;;5046500;28;25061;-81
2023/03/04 07:01:40;;;;;;;17.83;1.90;;;5.80;99.90;;;;;;5041725;28;25104;-80
2023/03/04 07:04:06;;;;;;;7.15;1.50;;;5.80;99.90;;;;;;5029636;28;25092;-79
2023/03/04 07:06:31;;;;;;;14.85;2.25;;;5.80;99.90;;;;;;5030783;28;25052;-79
2023/03/04 07:08:57;;;;;;;10.55;1.65;;;5.80;99.90;;;;;;5037648;28;25079;-78
2023/03/04 07:11:23;;;;;;;9.40;1.95;;;5.80;99.90;;;;;;5023974;28;25129;-77
2023/03/04 07:13:50;;;;;;;13.93;2.20;;;5.80;99.90;;;;;;5034769;28;25099;-77
2023/03/04 07:16:18;;;;;;;10.85;2.28;;;5.90;99.90;;;;;;5038090;28;25060;-79
2023/03/04 07:18:45;;;;;;;13.20;1.77;;;5.80;99.90;;;;;;5053471;28;25088;-79
2023/03/04 07:21:12;;;;;;;10.85;1.95;;;5.90;99.90;;;;;;5041608;28;25056;-77
2023/03/04 07:23:38;;;;;;;4.78;1.65;;;5.90;99.90;;;;;;5032737;28;25095;-81
2023/03/04 07:26:04;;;;;;;10.50;1.58;;;5.90;99.90;;;;;;5051342;28;25080;-83
2023/03/04 07:28:29;;;;;;;9.43;2.08;;;5.90;99.90;;;;;;5051726;28;25085;-80
2023/03/04 07:30:55;;;;;;;11.35;1.83;;;5.90;99.90;;;;;;5050122;28;25085;-82
2023/03/04 07:33:21;;;;;;;9.65;1.95;;;5.90;99.90;;;;;;5049159;28;25066;-81
2023/03/04 07:35:46;;;;;;;3.55;2.03;;;6.00;99.90;;;;;;5045583;28;25052;-83
2023/03/04 07:38:12;;;;;;;14.93;2.22;;;6.00;99.90;;;;;;5051605;28;25117;-81
2023/03/04 07:40:38;;;;;;;6.20;1.17;;;6.00;99.90;;;;;;5040500;28;25073;-82
2023/03/04 07:43:03;;;;;;;10.15;2.05;;;6.00;99.90;;;;;;5049166;28;25060;-79
2023/03/04 07:45:29;;;;;;;9.32;1.67;;;6.10;99.90;;;;;;5033024;28;25161;-80
2023/03/04 07:47:57;;;;;;;11.90;2.55;;;6.10;99.90;;;;;;5048865;28;25084;-82
2023/03/04 07:50:23;;;;;;;8.20;1.40;;;6.10;99.90;;;;;;5042745;28;25071;-81
2023/03/04 07:52:52;;;;;;;9.93;2.10;;;6.10;99.90;;;;;;5050724;28;25063;-83
2023/03/04 07:55:18;;;;;;;6.50;1.92;;;6.20;99.90;;;;;;5046376;28;25063;-78
2023/03/04 07:57:46;;;;;;;11.00;1.45;;;6.20;99.90;;;;;;5043686;28;25074;-79
2023/03/04 08:00:13;;;;;;;12.13;1.90;;;6.20;99.90;;;;;;5039807;28;25050;-80
2023/03/04 08:02:39;;;;;;;8.10;1.80;;;6.20;99.90;;;;;;5036107;28;25071;-75
2023/03/04 08:05:05;;;;;;;10.38;1.58;;;6.20;99.90;;;;;;5044776;28;25087;-78
2023/03/04 08:07:32;;;;;;;8.13;1.63;;;6.20;99.90;;;;;;5041751;28;25073;-80
2023/03/04 08:09:58;;;;;;;6.30;1.33;;;6.20;99.90;;;;;;5028626;28;25156;-84
2023/03/04 08:12:24;;;;;;;8.23;1.60;;;6.20;99.90;;;;;;5028467;28;25047;-82
2023/03/04 08:14:50;;;;;;;4.53;1.50;;;6.20;99.90;;;;;;5032882;28;25043;-79
2023/03/04 08:17:17;;;;;;;7.38;1.42;;;6.20;99.90;;;;;;5045476;28;25055;-80
2023/03/04 08:19:43;;;;;;;6.53;1.67;;;6.20;99.90;;;;;;5036379;28;25065;-79
2023/03/04 08:22:09;;;;;;;12.43;1.70;;;6.20;99.90;;;;;;5037290;28;25067;-78
2023/03/04 08:24:35;;;;;;;4.22;1.60;;;6.20;99.90;;;;;;5030099;28;25118;-83
2023/03/04 08:27:01;;;;;;;6.70;1.98;;;6.20;99.90;;;;;;5032236;28;25068;-79
2023/03/04 08:29:26;;;;;;;4.85;1.67;;;6.30;99.90;;;;;;5043498;28;25089;-82
2023/03/04 08:31:55;;;;;;;4.82;1.90;;;6.30;99.90;;;;;;5042705;28;25066;-82
2023/03/04 08:34:23;;;;;;;6.18;1.25;;;6.40;99.90;;;;;;5039226;28;25073;-80
2023/03/04 08:36:49;;;;;;;11.90;2.05;;;6.40;99.90;;;;;;5038436;28;25095;-79
2023/03/04 08:39:16;;;;;;;6.85;1.67;;;6.40;99.90;;;;;;5038706;28;25088;-79
2023/03/04 08:41:42;;;;;;;7.45;1.60;;;6.50;99.90;;;;;;5044641;28;25054;-82
2023/03/04 08:44:11;;;;;;;9.23;3.03;;;6.50;99.90;;;;;;5044045;28;25079;-80
2023/03/04 08:46:39;;;;;;;4.38;1.27;;;6.70;99.90;;;;;;5043619;28;25106;-80
2023/03/04 08:49:05;;;;;;;2.83;1.27;;;6.70;99.90;;;;;;5026544;28;25085;-79
2023/03/04 08:51:31;;;;;;;5.72;2.00;;;6.60;99.90;;;;;;5029370;28;25083;-84
2023/03/04 08:53:57;;;;;;;4.13;1.75;;;6.60;99.90;;;;;;5030512;28;25076;-84
2023/03/04 08:56:23;;;;;;;3.17;1.38;;;6.60;99.90;;;;;;5020566;28;25073;-80
2023/03/04 08:58:49;;;;;;;3.75;1.40;;;6.60;99.90;;;;;;5048717;28;25070;-86
2023/03/04 09:01:15;;;;;;;4.22;1.52;;;6.60;99.90;;;;;;5039512;28;25057;-81
2023/03/04 09:03:41;;;;;;;4.85;1.40;;;6.60;99.90;;;;;;5042251;28;25075;-81
2023/03/04 09:06:10;;;;;;;4.65;1.23;;;6.70;99.90;;;;;;5039052;28;25064;-79
2023/03/04 09:08:36;;;;;;;7.75;1.40;;;6.60;99.90;;;;;;5038650;28;25060;-78
2023/03/04 09:11:02;;;;;;;4.40;1.05;;;6.70;99.90;;;;;;5026097;28;25131;-78
2023/03/04 09:13:29;;;;;;;4.63;1.10;;;6.80;99.90;;;;;;5023532;28;25141;-78
2023/03/04 09:15:57;;;;;;;5.03;1.45;;;7.00;99.90;;;;;;5011037;28;25073;-83
2023/03/04 09:18:25;;;;;;;4.75;1.15;;;7.10;99.90;;;;;;5021112;28;25063;-88
2023/03/04 09:20:51;;;;;;;3.22;1.73;;;7.10;99.90;;;;;;5034774;28;25059;-79
2023/03/04 09:23:17;;;;;;;5.93;1.45;;;7.10;99.90;;;;;;5028305;28;25092;-79
2023/03/04 09:25:45;;;;;;;1.75;1.13;;;7.10;99.90;;;;;;5027559;28;25083;-79
2023/03/04 09:28:11;;;;;;;5.18;1.25;;;7.30;99.90;;;;;;5029720;28;25090;-79
2023/03/04 09:30:36;;;;;;;4.18;1.58;;;7.50;99.90;;;;;;5013929;28;25050;-78
2023/03/04 09:33:02;;;;;;;3.70;1.20;;;7.60;99.90;;;;;;5025263;28;25069;-74
2023/03/04 09:35:31;;;;;;;1.80;1.00;;;7.40;99.90;;;;;;5023915;28;25099;-79
2023/03/04 09:37:58;;;;;;;3.33;1.10;;;7.30;99.90;;;;;;5021608;28;25100;-75
2023/03/04 09:40:32;;;;;;;2.45;1.05;;;7.40;99.90;;;;;;5025497;28;25058;-79
2023/03/04 09:43:02;;;;;;;4.90;0.70;;;7.30;99.90;;;;;;5028860;28;25049;-78
2023/03/04 09:45:45;;;;;;;4.30;1.17;;;7.30;99.90;;;;;;5015369;28;25142;-79
2023/03/04 09:48:16;;;;;;;;;;;7.10;99.90;;;;;;5030013;28;25110;-78
2023/03/04 09:51:13;;;;;;;3.42;1.20;;;7.00;99.90;;;;;;5018698;28;25060;-77
2023/03/04 09:54:03;;;;;;;7.03;1.35;;;7.20;99.90;;;;;;5018975;28;25111;-78
2023/03/04 09:56:30;;;;;;;1.10;1.00;;;7.20;99.90;;;;;;5013209;28;25065;-78
2023/03/04 09:59:22;;;;;;;4.13;1.00;;;7.30;99.90;;;;;;5023547;28;25137;-77
2023/03/04 10:01:50;;;;;;;3.45;0.80;;;7.40;99.90;;;;;;5021907;28;25158;-76
2023/03/04 10:04:33;;;;;;;4.63;1.20;;;7.40;99.90;;;;;;5021144;28;25073;-77
2023/03/04 10:07:01;;;;;;;1.98;1.17;;;7.50;99.90;;;;;;5028597;28;25111;-79
2023/03/04 10:09:48;;;;;;;8.10;1.00;;;7.40;99.90;;;;;;5025954;28;25063;-77
2023/03/04 10:12:20;;;;;;;3.35;0.82;;;7.40;99.90;;;;;;5030233;28;25067;-83
2023/03/04 10:14:53;;;;;;;1.85;1.20;;;7.50;99.90;;;;;;5045634;28;25075;-79
2023/03/04 10:17:27;;;;;;;2.58;0.95;;;7.50;99.90;;;;;;5047149;28;25051;-82
2023/03/04 10:20:02;;;;;;;2.72;1.10;;;7.50;99.90;;;;;;5038728;28;25066;-80
2023/03/04 10:22:33;;;;;;;4.97;1.00;;;7.40;99.90;;;;;;5030672;28;25062;-78
2023/03/04 10:25:15;;;;;;;3.00;1.10;;;7.40;99.90;;;;;;5030654;28;25086;-80
2023/03/04 10:27:42;;;;;;;4.80;1.20;;;7.30;99.90;;;;;;5040311;28;25067;-77
2023/03/04 10:30:33;;;;;;;1.05;0.77;;;7.30;99.90;;;;;;5044821;28;25088;-81
2023/03/04 10:32:59;;;;;;;1.67;0.93;;;7.40;99.90;;;;;;5049129;28;25076;-86
2023/03/04 10:35:32;;;;;;;1.98;1.08;;;7.50;99.90;;;;;;5049268;28;25078;-82
2023/03/04 10:38:02;;;;;;;7.95;0.95;;;7.60;99.90;;;;;;5051255;28;25065;-79
2023/03/04 10:40:28;;;;;;;1.80;0.93;;;7.90;99.90;;;;;;5039210;28;25066;-80
2023/03/04 10:42:54;;;;;;;3.67;1.13;;;8.20;99.90;;;;;;5046205;28;25066;-78
2023/03/04 10:45:26;;;;;;;3.13;1.00;;;8.20;99.90;;;;;;5044532;28;25078;-79
2023/03/04 10:47:55;;;;;;;2.80;0.93;;;8.00;99.90;;;;;;5047921;28;25073;-80
2023/03/04 10:50:26;;;;;;;2.42;0.77;;;7.90;99.90;;;;;;5045572;28;25085;-78
2023/03/04 10:52:54;;;;;;;1.00;0.80;;;8.00;99.90;;;;;;5044439;28;25086;-83
2023/03/04 10:55:26;;;;;;;1.98;1.10;;;7.90;99.90;;;;;;5047989;28;25058;-80
2023/03/04 10:58:03;;;;;;;9.13;2.63;;;8.00;99.90;;;;;;5046438;28;25067;-78
2023/03/04 11:00:33;;;;;;;5.28;2.03;;;8.20;99.90;;;;;;5048321;28;25063;-78
2023/03/04 11:03:30;;;;;;;7.70;1.10;;;8.10;99.90;;;;;;5052557;28;25091;-84
2023/03/04 11:06:18;;;;;;;5.45;1.15;;;8.10;99.90;;;;;;5011893;28;25095;-79
2023/03/04 11:08:51;;;;;;;5.53;1.20;;;8.20;99.90;;;;;;5032374;28;25166;-79
2023/03/04 11:11:43;;;;;;;4.63;1.23;;;8.30;99.90;;;;;;5030752;28;25083;-80
2023/03/04 11:14:28;;;;;;;0.63;0.55;;;8.50;99.90;;;;;;5015292;28;25063;-78
2023/03/04 11:17:02;;;;;;;2.35;1.08;;;8.40;99.90;;;;;;5037575;28;25069;-78
2023/03/04 11:19:33;;;;;;;2.28;1.05;;;8.50;99.90;;;;;;5045407;28;25058;-82
2023/03/04 11:22:00;;;;;;;3.22;1.17;;;8.80;99.90;;;;;;5041333;28;25072;-78
2023/03/04 11:24:29;;;;;;;2.88;1.27;;;8.80;99.90;;;;;;5028217;28;25062;-80
2023/03/04 11:27:10;;;;;;;3.75;1.00;;;8.80;99.90;;;;;;5024202;28;25073;-80
2023/03/04 11:29:43;;;;;;;7.10;1.10;;;9.20;99.90;;;;;;5024697;28;25104;-75
2023/03/04 11:32:17;;;;;;;2.85;0.85;;;8.70;99.90;;;;;;5024337;28;25054;-78
2023/03/04 11:35:06;;;;;;;6.35;1.17;;;8.50;99.90;;;;;;5025165;28;25093;-80
2023/03/04 11:37:53;;;;;;;3.33;2.03;;;8.60;99.90;;;;;;5036192;28;25076;-80
2023/03/04 11:40:38;;;;;;;2.45;1.38;;;8.40;99.90;;;;;;5016709;28;25172;-77
2023/03/04 11:43:19;;;;;;;5.10;1.33;;;8.50;99.90;;;;;;5030642;28;25060;-80
2023/03/04 11:46:17;;;;;;;3.90;1.35;;;8.40;99.90;;;;;;5028545;28;25084;-78
2023/03/04 11:49:15;;;;;;;4.32;1.45;;;8.30;99.90;;;;;;5030468;28;25079;-77
2023/03/04 11:52:09;;;;;;;1.73;1.15;;;8.40;99.90;;;;;;5025420;28;25088;-75
2023/03/04 11:54:51;;;;;;;1.80;1.10;;;8.30;99.90;;;;;;5017887;28;25074;-77
2023/03/04 11:57:31;;;;;;;8.82;1.33;;;8.20;99.90;;;;;;5027871;28;25107;-78
2023/03/04 12:00:21;;;;;;;4.25;1.08;;;8.20;99.90;;;;;;5028078;28;25173;-79
2023/03/04 12:03:05;;;;;;;2.88;1.38;;;8.20;99.90;;;;;;5034621;28;25072;-78
2023/03/04 12:05:54;;;;;;;3.65;1.08;;;8.00;99.90;;;;;;5020320;28;25101;-79
2023/03/04 12:08:57;;;;;;;7.22;1.17;;;8.00;99.90;;;;;;5034115;28;25063;-76
2023/03/04 12:11:32;;;;;;;3.40;1.00;;;7.90;99.90;;;;;;5028699;28;25130;-78
2023/03/04 12:14:20;;;;;;;2.80;1.23;;;8.00;99.90;;;;;;5034430;28;25069;-76
2023/03/04 12:17:09;;;;;;;4.15;1.27;;;8.00;99.90;;;;;;5033377;28;25061;-77
2023/03/04 12:20:00;;;;;;;2.03;0.95;;;8.20;99.90;;;;;;5037240;28;25143;-77
2023/03/04 12:22:59;;;;;;;5.90;1.00;;;8.70;99.90;;;;;;5028858;28;25069;-78
2023/03/04 12:25:42;;;;;;;1.67;1.05;;;8.80;99.90;;;;;;5029388;28;25080;-76
2023/03/04 12:28:26;;;;;;;;;;;8.90;99.90;;;;;;5031157;28;25187;-75
2023/03/04 12:31:00;;;;;;;2.08;0.98;;;8.90;99.90;;;;;;5028952;28;25076;-79
2023/03/04 12:33:48;;;;;;;8.45;0.90;;;8.70;99.90;;;;;;5026095;28;25121;-73
2023/03/04 12:36:51;;;;;;;6.63;1.02;;;8.40;99.90;;;;;;5026351;28;25088;-75
2023/03/04 12:39:39;;;;;;;4.32;0.65;;;8.00;99.90;;;;;;5027548;28;25060;-79
2023/03/04 12:42:19;;;;;;;5.53;0.80;;;7.90;99.90;;;;;;5013582;28;25058;-79
2023/03/04 12:45:17;;;;;;;5.05;0.98;;;7.90;99.90;;;;;;5027995;28;25114;-76
2023/03/04 12:47:49;;;;;;;2.00;0.90;;;8.00;99.90;;;;;;5035526;28;25137;-75
2023/03/04 12:50:42;;;;;;;2.57;0.60;;;8.10;99.90;;;;;;5035379;28;25101;-80
2023/03/04 12:53:35;;;;;;;8.30;0.90;;;8.20;99.90;;;;;;5035968;28;25052;-75
2023/03/04 12:56:03;;;;;;;5.15;1.30;;;8.50;99.90;;;;;;5014376;28;25053;-76
2023/03/04 12:58:31;;;;;;;3.80;0.90;;;8.80;99.90;;;;;;5026315;28;25060;-78
2023/03/04 13:01:07;;;;;;;0.60;0.60;;;8.60;99.90;;;;;;5031808;28;25071;-79
2023/03/04 13:03:58;;;;;;;2.08;1.02;;;8.60;99.90;;;;;;5015642;28;25067;-76
2023/03/04 13:06:38;;;;;;;2.20;0.50;;;8.90;99.90;;;;;;5014699;28;25084;-77